createdAt,value
2019-04-06T00:02:23.124Z,69.30
2019-04-06T00:05:04.209Z,63.17
2019-04-06T00:07:44.866Z,71.07
2019-04-06T00:10:25.627Z,69.63
2019-04-06T00:13:06.077Z,63.50
2019-04-06T00:15:46.637Z,66.60
2019-04-06T00:18:27.328Z,65.90
2019-04-06T00:21:08.135Z,63.43
2019-04-06T00:23:48.916Z,74.37
2019-04-06T00:26:29.730Z,71.87
2019-04-06T00:29:10.449Z,76.93
2019-04-06T00:31:52.595Z,67.20
2019-04-06T00:34:32.834Z,66.93
2019-04-06T00:37:13.402Z,64.30
2019-04-06T00:39:54.201Z,73.57
2019-04-06T00:42:34.871Z,66.73
2019-04-06T00:45:15.776Z,62.80
2019-04-06T00:47:56.226Z,62.20
2019-04-06T00:50:37.012Z,58.47
2019-04-06T00:53:17.818Z,64.20
2019-04-06T00:55:58.530Z,69.87
2019-04-06T00:58:39.235Z,66.87
2019-04-06T01:01:21.794Z,57.57
2019-04-06T01:04:02.731Z,67.60
2019-04-06T01:06:43.601Z,67.47
2019-04-06T01:09:24.272Z,76.63
2019-04-06T01:12:05.230Z,61.20
2019-04-06T01:14:45.480Z,72.30
2019-04-06T01:17:26.452Z,66.53
2019-04-06T01:20:07.263Z,69.23
2019-04-06T01:22:47.911Z,67.77
2019-04-06T01:25:28.345Z,71.30
2019-04-06T01:28:09.063Z,70.07
2019-04-06T01:30:49.726Z,70.53
2019-04-06T01:33:30.410Z,69.77
2019-04-06T01:36:10.907Z,68.87
2019-04-06T01:38:51.476Z,74.37
2019-04-06T01:41:31.840Z,66.87
2019-04-06T01:44:12.627Z,69.73
2019-04-06T01:46:53.206Z,74.80
2019-04-06T01:49:33.618Z,79.23
2019-04-06T01:52:14.244Z,80.03
2019-04-06T01:54:55.060Z,84.00
2019-04-06T01:57:35.451Z,78.83
2019-04-06T02:00:16.131Z,81.37
2019-04-06T02:02:57.206Z,75.43
2019-04-06T02:05:38.141Z,76.87
2019-04-06T02:08:18.721Z,81.60
2019-04-06T02:10:59.382Z,76.57
2019-04-06T02:13:40.459Z,87.60
2019-04-06T02:16:21.452Z,90.87
2019-04-06T02:19:02.279Z,87.83
2019-04-06T02:21:42.872Z,90.97
2019-04-06T02:24:23.614Z,84.90
2019-04-06T02:27:03.974Z,84.57
2019-04-06T02:29:44.987Z,91.93
2019-04-06T02:38:31.912Z,90.03
2019-04-06T02:41:15.056Z,101.03
2019-04-06T02:44:02.787Z,89.33
2019-04-06T02:46:50.475Z,89.93
2019-04-06T02:49:38.195Z,98.63
2019-04-06T02:52:26.084Z,101.70
2019-04-06T02:55:15.354Z,95.73
2019-04-06T02:58:03.125Z,102.60
2019-04-06T03:00:51.097Z,96.37
2019-04-06T03:03:40.247Z,96.57
2019-04-06T03:06:28.032Z,101.70
2019-04-06T03:09:15.777Z,92.83
2019-04-06T03:12:03.499Z,92.87
2019-04-06T03:14:51.412Z,94.33
2019-04-06T03:17:40.650Z,98.20
2019-04-06T03:20:21.351Z,87.77
2019-04-06T03:23:02.483Z,102.00
2019-04-06T03:25:43.076Z,94.67
2019-04-06T03:28:24.048Z,100.70
2019-04-06T03:31:04.891Z,103.23
2019-04-06T03:33:46.021Z,105.47
2019-04-06T03:36:26.777Z,100.33
2019-04-06T03:39:07.427Z,96.00
2019-04-06T03:41:48.466Z,102.50
2019-04-06T03:44:29.010Z,97.93
2019-04-06T03:47:09.622Z,105.97
2019-04-06T03:49:50.066Z,105.63
2019-04-06T03:52:30.896Z,106.10
2019-04-06T03:55:11.724Z,102.80
2019-04-06T03:57:52.615Z,104.90
2019-04-06T04:00:33.415Z,101.90
2019-04-06T04:03:14.160Z,102.00
2019-04-06T04:05:54.671Z,103.40
2019-04-06T04:08:35.559Z,102.83
2019-04-06T04:11:16.100Z,110.33
2019-04-06T04:13:56.997Z,98.80
2019-04-06T04:16:37.792Z,111.83
2019-04-06T04:19:18.782Z,108.33
2019-04-06T04:21:59.582Z,107.50
2019-04-06T04:24:40.550Z,106.43
2019-04-06T04:27:28.392Z,101.53
2019-04-06T04:30:04.544Z,111.23
2019-04-06T04:32:45.158Z,105.63
2019-04-06T04:35:25.978Z,100.57
2019-04-06T04:38:06.565Z,100.80
2019-04-06T04:40:46.946Z,107.83
2019-04-06T04:43:27.701Z,102.47
2019-04-06T04:46:08.608Z,102.60
2019-04-06T04:48:48.926Z,100.00
2019-04-06T04:51:29.420Z,101.00
2019-04-06T04:54:10.360Z,96.90
2019-04-06T04:56:50.842Z,100.53
2019-04-06T04:59:31.526Z,101.07
2019-04-06T05:02:12.357Z,108.93
2019-04-06T05:04:53.027Z,110.93
2019-04-06T05:07:34.269Z,109.53
2019-04-06T05:10:14.812Z,110.17
2019-04-06T05:12:55.599Z,103.47
2019-04-06T05:15:36.374Z,107.53
2019-04-06T05:18:17.317Z,107.43
2019-04-06T05:20:58.032Z,104.60
2019-04-06T05:23:38.408Z,105.03
2019-04-06T05:26:18.855Z,106.83
2019-04-06T05:28:59.416Z,106.57
2019-04-06T05:31:40.131Z,102.40
2019-04-06T05:34:20.737Z,94.60
2019-04-06T05:37:01.269Z,99.70
2019-04-06T05:39:41.649Z,102.87
2019-04-06T05:42:22.529Z,91.90
2019-04-06T05:45:03.033Z,99.17
2019-04-06T05:47:44.078Z,97.43
2019-04-06T05:50:24.557Z,96.67
2019-04-06T05:53:05.181Z,92.10
2019-04-06T05:55:45.883Z,92.43
2019-04-06T05:58:26.466Z,97.70
2019-04-06T06:01:10.214Z,93.20
2019-04-06T06:03:49.811Z,96.70
2019-04-06T06:06:29.991Z,94.93
2019-04-06T06:09:10.684Z,97.23
2019-04-06T06:11:51.489Z,95.83
2019-04-06T06:14:31.934Z,96.87
2019-04-06T06:17:14.287Z,98.70
2019-04-06T06:19:54.474Z,89.60
2019-04-06T06:22:35.257Z,97.70
2019-04-06T06:25:16.248Z,85.90
2019-04-06T06:27:56.755Z,86.87
2019-04-06T06:30:37.723Z,85.40
2019-04-06T06:33:18.425Z,88.87
2019-04-06T06:35:58.970Z,87.30
2019-04-06T06:38:39.504Z,87.40
2019-04-06T06:41:19.924Z,83.37
2019-04-06T06:44:00.381Z,84.30
2019-04-06T06:46:41.178Z,85.13
2019-04-06T06:49:19.888Z,75.90
2019-04-06T06:55:01.462Z,81.90
2019-04-06T06:57:49.212Z,77.33
2019-04-06T07:00:36.937Z,74.37
2019-04-06T07:03:24.689Z,74.40
2019-04-06T07:06:12.618Z,70.03
2019-04-06T07:09:01.839Z,77.03
2019-04-06T07:11:49.560Z,68.70
2019-04-06T07:14:37.287Z,64.80
2019-04-06T07:17:24.975Z,70.13
2019-04-06T07:20:05.505Z,68.10
2019-04-06T07:22:45.965Z,73.60
2019-04-06T07:25:26.744Z,71.97
2019-04-06T07:28:07.405Z,69.83
2019-04-06T07:30:47.749Z,70.47
2019-04-06T07:33:28.295Z,74.87
2019-04-06T07:36:09.220Z,69.23
2019-04-06T07:38:49.631Z,64.50
2019-04-06T07:41:30.393Z,72.47
2019-04-06T07:44:11.125Z,67.93
2019-04-06T07:46:52.085Z,69.13
2019-04-06T07:49:32.549Z,65.67
2019-04-06T07:52:12.910Z,70.50
2019-04-06T07:54:53.745Z,69.37
2019-04-06T07:57:34.406Z,65.67
2019-04-06T08:00:15.143Z,63.87
2019-04-06T08:02:55.905Z,65.40
2019-04-06T08:05:36.800Z,64.70
2019-04-06T08:08:17.220Z,69.30
2019-04-06T08:10:58.212Z,65.20
2019-04-06T08:13:38.686Z,64.30
2019-04-06T08:16:19.390Z,63.37
2019-04-06T08:19:00.110Z,65.00
2019-04-06T08:21:41.164Z,62.93
2019-04-06T08:24:21.459Z,63.90
2019-04-06T08:27:02.444Z,65.50
2019-04-06T08:29:43.395Z,60.53
2019-04-06T08:32:24.554Z,65.97
2019-04-06T08:35:05.359Z,56.07
2019-04-06T08:37:46.120Z,62.50
2019-04-06T08:40:26.725Z,60.37
2019-04-06T08:43:07.223Z,66.33
2019-04-06T08:45:47.804Z,64.33
2019-04-06T08:48:28.590Z,58.17
2019-04-06T08:51:09.253Z,61.03
2019-04-06T08:53:50.196Z,58.53
2019-04-06T08:56:30.869Z,58.53
2019-04-06T08:59:13.316Z,62.37
2019-04-06T09:01:54.004Z,59.47
2019-04-06T09:04:35.174Z,60.53
2019-04-06T09:07:15.906Z,58.43
2019-04-06T09:09:56.526Z,54.57
2019-04-06T09:12:37.476Z,60.60
2019-04-06T09:15:18.603Z,58.63
2019-04-06T09:17:59.285Z,64.87
2019-04-06T09:20:39.800Z,60.10
2019-04-06T09:23:20.514Z,65.33
2019-04-06T09:26:01.583Z,59.30
2019-04-06T09:28:42.531Z,63.33
2019-04-06T09:31:23.630Z,63.07
2019-04-06T09:34:04.015Z,63.10
2019-04-06T09:36:44.505Z,63.73
2019-04-06T09:39:25.279Z,63.00
2019-04-06T09:42:06.165Z,65.27
2019-04-06T09:44:51.477Z,62.77
2019-04-06T09:47:33.676Z,60.37
2019-04-06T09:50:19.234Z,65.97
2019-04-06T09:53:04.522Z,61.67
2019-04-06T09:56:04.929Z,62.17
2019-04-06T09:59:04.935Z,60.73
2019-04-06T10:02:04.879Z,64.97
2019-04-06T10:07:43.925Z,58.03
2019-04-06T10:13:22.197Z,58.80
2019-04-06T10:16:04.147Z,60.70
2019-04-06T10:18:50.066Z,57.97
2019-04-06T10:24:44.535Z,57.27
2019-04-06T10:27:44.709Z,55.57
2019-04-06T10:30:44.281Z,54.93
2019-04-06T10:33:29.794Z,51.93
2019-04-06T10:36:31.416Z,48.83
2019-04-06T10:39:31.542Z,50.10
2019-04-06T10:42:14.655Z,50.00
2019-04-06T10:45:14.675Z,48.03
2019-04-06T10:48:14.627Z,50.23
2019-04-06T10:51:01.117Z,47.73
2019-04-06T10:54:07.991Z,45.50
2019-04-06T10:57:14.891Z,45.60
2019-04-06T11:00:22.032Z,43.87
2019-04-06T11:06:27.484Z,43.05
2019-04-06T11:09:34.355Z,46.48
2019-04-06T11:12:41.267Z,42.17
2019-04-06T11:15:48.163Z,35.95
2019-04-06T11:21:31.882Z,38.63
2019-04-06T11:27:08.175Z,39.08
2019-04-06T11:29:50.476Z,31.48
2019-04-06T11:32:51.398Z,33.65
2019-04-06T11:35:33.805Z,33.78
2019-04-06T11:38:16.922Z,31.95
2019-04-06T11:41:23.859Z,31.05
2019-04-06T11:44:31.117Z,31.45
2019-04-06T11:47:38.229Z,33.23
2019-04-06T11:50:45.119Z,29.00
2019-04-06T11:56:46.869Z,25.80
2019-04-06T12:02:52.072Z,26.77
2019-04-06T12:08:57.355Z,27.48
2019-04-06T12:12:04.319Z,30.97
2019-04-06T12:15:11.369Z,29.72
2019-04-06T12:18:18.613Z,31.20
2019-04-06T12:21:18.148Z,30.23
2019-04-06T12:24:17.916Z,32.05
2019-04-06T12:27:18.091Z,32.93
2019-04-06T12:30:00.950Z,31.17
2019-04-06T12:36:08.317Z,30.05
2019-04-06T12:38:54.029Z,28.70
2019-04-06T12:41:54.157Z,29.70
2019-04-06T12:44:39.122Z,26.40
2019-04-06T12:47:39.400Z,24.18
2019-04-06T12:50:39.750Z,27.90
2019-04-06T12:56:36.753Z,24.95
2019-04-06T13:02:35.709Z,28.00
2019-04-06T13:05:17.977Z,26.33
2019-04-06T13:11:12.581Z,27.90
2019-04-06T13:17:27.549Z,25.48
2019-04-06T13:20:10.064Z,24.87
2019-04-06T13:22:52.715Z,21.42
2019-04-06T13:25:55.930Z,23.30
2019-04-06T13:28:37.829Z,22.73
2019-04-06T13:31:37.703Z,22.40
2019-04-06T13:34:22.520Z,22.98
2019-04-06T13:37:05.390Z,22.60
2019-04-06T13:39:50.682Z,23.32
2019-04-06T13:42:50.953Z,25.32
2019-04-06T13:45:50.466Z,23.32
2019-04-06T13:48:32.430Z,22.10
2019-04-06T13:51:15.169Z,21.97
2019-04-06T13:54:15.239Z,19.73
2019-04-06T13:57:00.928Z,17.10
2019-04-06T14:00:04.674Z,18.48
2019-04-06T14:03:04.869Z,19.12
2019-04-06T14:08:40.755Z,16.42
2019-04-06T14:14:33.484Z,14.23
2019-04-06T14:17:33.016Z,14.90
2019-04-06T14:20:18.169Z,14.07
2019-04-06T14:23:03.681Z,13.72
2019-04-06T14:25:49.265Z,13.30
2019-04-06T14:28:49.581Z,13.88
2019-04-06T14:31:34.318Z,16.00
2019-04-06T14:34:33.720Z,13.32
2019-04-06T14:37:18.598Z,13.20
2019-04-06T14:40:19.323Z,12.20
2019-04-06T14:43:19.938Z,12.75
2019-04-06T14:46:20.324Z,12.10
2019-04-06T14:49:29.421Z,12.25
2019-04-06T14:52:22.085Z,13.88
2019-04-06T14:55:21.610Z,12.58
2019-04-06T14:58:03.816Z,14.33
2019-04-06T15:01:04.032Z,14.38
2019-04-06T15:04:03.960Z,16.52
2019-04-06T15:09:57.361Z,18.35
2019-04-06T15:15:52.052Z,19.37
2019-04-06T15:18:51.540Z,16.25
2019-04-06T15:21:37.870Z,15.45
2019-04-06T15:24:45.049Z,15.68
2019-04-06T15:27:52.363Z,17.10
2019-04-06T15:30:59.364Z,16.77
2019-04-06T15:34:06.289Z,16.57
2019-04-06T15:45:57.095Z,16.93
2019-04-06T15:49:04.180Z,19.07
2019-04-06T15:52:15.335Z,18.07
2019-04-06T15:58:18.192Z,16.82
2019-04-06T16:04:33.619Z,19.30
2019-04-06T16:07:40.863Z,18.75
2019-04-06T16:10:48.074Z,16.70
2019-04-06T16:13:55.129Z,17.73
2019-04-06T16:20:10.576Z,17.42
2019-04-06T16:23:10.324Z,12.75
2019-04-06T16:26:09.896Z,12.53
2019-04-06T16:29:09.356Z,15.45
2019-04-06T16:32:12.460Z,13.78
2019-04-06T16:34:56.470Z,12.73
2019-04-06T16:37:56.609Z,13.28
2019-04-06T16:40:56.279Z,15.27
2019-04-06T16:49:56.009Z,13.37
2019-04-06T16:52:56.347Z,13.23
2019-04-06T16:55:56.213Z,15.03
2019-04-06T16:58:38.954Z,13.30
2019-04-06T17:07:25.656Z,12.67
2019-04-06T17:10:08.837Z,13.17
2019-04-06T17:18:55.626Z,13.27
2019-04-06T17:21:56.339Z,15.20
2019-04-06T17:24:56.077Z,14.10
2019-04-06T17:27:38.109Z,13.93
2019-04-06T17:30:23.599Z,14.03
2019-04-06T17:33:24.010Z,13.13
2019-04-06T17:36:24.129Z,15.40
2019-04-06T17:39:07.278Z,13.93
2019-04-06T17:41:52.529Z,14.73
2019-04-06T17:44:51.997Z,14.00
2019-04-06T17:56:34.140Z,15.93
2019-04-06T17:59:19.822Z,17.47
2019-04-06T18:02:20.349Z,17.73
2019-04-06T18:05:05.754Z,16.53
2019-04-06T18:08:06.007Z,16.17
2019-04-06T18:10:51.380Z,18.50
2019-04-06T18:13:51.142Z,16.87
2019-04-06T18:16:31.588Z,22.03
2019-04-06T18:19:19.394Z,20.00
2019-04-06T18:22:00.120Z,19.53
2019-04-06T18:24:41.106Z,19.27
2019-04-06T18:27:22.008Z,21.00
2019-04-06T18:30:03.329Z,18.57
2019-04-06T18:32:57.826Z,24.37
2019-04-06T18:35:31.600Z,21.53
2019-04-06T18:38:31.161Z,22.83
2019-04-06T18:41:11.454Z,21.30
2019-04-06T18:43:52.495Z,22.43
2019-04-06T18:46:32.953Z,23.10
2019-04-06T18:49:13.830Z,19.17
2019-04-06T18:51:54.825Z,20.73
2019-04-06T18:54:35.814Z,20.43
2019-04-06T18:57:16.280Z,20.27
2019-04-06T18:59:57.118Z,20.67
2019-04-06T19:02:38.330Z,18.27
2019-04-06T19:05:19.376Z,19.70
2019-04-06T19:07:59.940Z,20.80
2019-04-06T19:10:40.975Z,18.53
2019-04-06T19:13:21.685Z,19.77
2019-04-06T19:16:02.363Z,21.60
2019-04-06T19:18:43.157Z,21.37
2019-04-06T19:21:23.526Z,24.50
2019-04-06T19:24:04.380Z,21.40
2019-04-06T19:26:44.753Z,22.47
2019-04-06T19:29:26.494Z,21.70
2019-04-06T19:32:05.684Z,22.33
2019-04-06T19:34:53.434Z,25.17
2019-04-06T19:37:41.220Z,24.37
2019-04-06T19:43:42.650Z,26.47
2019-04-06T19:46:30.503Z,27.47
2019-04-06T19:49:18.301Z,28.10
2019-04-06T19:52:06.112Z,26.63
2019-04-06T19:58:20.462Z,28.87
2019-04-06T20:01:08.344Z,28.70
2019-04-06T20:04:17.040Z,29.30
2019-04-06T20:07:24.034Z,26.50
2019-04-06T20:10:11.818Z,24.07
2019-04-06T20:15:52.739Z,30.47
2019-04-06T20:18:41.583Z,26.07
2019-04-06T20:21:22.483Z,24.47
2019-04-06T20:24:02.977Z,24.70
2019-04-06T20:26:43.893Z,24.90
2019-04-06T20:29:24.817Z,31.17
2019-04-06T20:32:05.794Z,24.57
2019-04-06T20:34:47.084Z,26.20
2019-04-06T20:37:27.500Z,31.63
2019-04-06T20:40:08.622Z,24.77
2019-04-06T20:42:49.957Z,25.80
2019-04-06T20:45:30.329Z,27.47
2019-04-06T20:48:11.035Z,27.50
2019-04-06T20:50:51.697Z,27.90
2019-04-06T20:53:33.167Z,25.90
2019-04-06T20:56:14.117Z,27.63
2019-04-06T20:58:55.683Z,28.83
2019-04-06T21:01:36.302Z,31.03
2019-04-06T21:04:16.962Z,26.43
2019-04-06T21:06:57.662Z,31.67
2019-04-06T21:09:39.419Z,28.27
2019-04-06T21:12:19.769Z,23.43
2019-04-06T21:15:01.095Z,26.10
2019-04-06T21:17:41.696Z,24.57
2019-04-06T21:20:22.336Z,23.30
2019-04-06T21:23:03.049Z,24.20
2019-04-06T21:25:43.697Z,25.73
2019-04-06T21:28:24.504Z,25.90
2019-04-06T21:31:05.336Z,26.13
2019-04-06T21:33:46.547Z,25.30
2019-04-06T21:36:27.959Z,24.97
2019-04-06T21:39:09.033Z,24.00
2019-04-06T21:41:49.811Z,28.00
2019-04-06T21:44:31.034Z,25.27
2019-04-06T21:47:12.239Z,24.87
2019-04-06T21:49:52.873Z,28.33
2019-04-06T21:52:34.172Z,27.17
2019-04-06T21:55:15.006Z,25.33
2019-04-06T21:57:56.228Z,26.57
2019-04-06T22:00:56.649Z,27.57
2019-04-06T22:03:37.200Z,30.67
2019-04-06T22:06:18.454Z,28.87
2019-04-06T22:08:59.057Z,26.47
2019-04-06T22:11:41.176Z,26.00
2019-04-06T22:14:22.773Z,26.20
2019-04-06T22:17:06.238Z,26.87
2019-04-06T22:19:47.263Z,28.30
2019-04-06T22:22:27.864Z,31.40
2019-04-06T22:25:08.657Z,29.57
2019-04-06T22:27:49.448Z,29.23
2019-04-06T22:30:30.301Z,29.17
2019-04-06T22:33:09.295Z,29.50
2019-04-06T22:35:57.306Z,27.87
2019-04-06T22:38:46.991Z,31.73
2019-04-06T22:41:36.445Z,27.87
2019-04-06T22:44:25.435Z,32.07
2019-04-06T22:47:13.138Z,28.70
2019-04-06T22:50:00.853Z,31.83
2019-04-06T22:55:42.348Z,24.70
2019-04-06T22:58:31.389Z,30.73
2019-04-06T23:04:33.248Z,34.17
2019-04-06T23:10:30.375Z,34.20
2019-04-06T23:16:26.468Z,31.13
2019-04-06T23:19:15.701Z,30.77
2019-04-06T23:21:56.631Z,30.00
2019-04-06T23:24:37.728Z,27.73
2019-04-06T23:27:18.263Z,28.33
2019-04-06T23:29:58.944Z,30.63
2019-04-06T23:32:39.972Z,28.80
2019-04-06T23:35:21.272Z,26.83
2019-04-06T23:38:01.959Z,29.13
2019-04-06T23:40:42.474Z,30.20
2019-04-06T23:43:22.914Z,32.27
2019-04-06T23:46:03.632Z,31.40
2019-04-06T23:48:44.374Z,29.73
2019-04-06T23:51:25.691Z,30.40
2019-04-06T23:54:06.441Z,30.30
2019-04-06T23:56:47.554Z,36.70
2019-04-06T23:59:28.124Z,33.57
